createdAt,value
2016-05-10T00:01:47.660Z,9.5
2016-05-10T00:05:05.028Z,9.5
2016-05-10T00:08:12.505Z,9.4
2016-05-10T00:11:14.623Z,9.4
2016-05-10T00:14:26.727Z,9.4
2016-05-10T00:17:38.857Z,9.4
2016-05-10T00:20:49.143Z,9.3
2016-05-10T00:24:00.320Z,9.2
2016-05-10T00:27:12.625Z,9.2
2016-05-10T00:30:24.926Z,9.2
2016-05-10T00:33:37.532Z,9.1
2016-05-10T00:36:50.042Z,9.1
2016-05-10T00:40:07.535Z,9
2016-05-10T00:43:14.950Z,9
2016-05-10T00:46:17.430Z,9
2016-05-10T00:49:29.673Z,8.9
2016-05-10T00:52:42.087Z,8.9
2016-05-10T00:55:54.580Z,8.9
2016-05-10T00:59:12.447Z,8.8
2016-05-10T01:02:15.236Z,8.8
2016-05-10T01:05:27.762Z,8.7
2016-05-10T01:08:40.395Z,8.7
2016-05-10T01:11:53.263Z,8.7
2016-05-10T01:15:10.991Z,8.6
2016-05-10T01:18:13.952Z,8.6
2016-05-10T01:21:26.727Z,8.5
2016-05-10T01:24:39.752Z,8.5
2016-05-10T01:27:52.603Z,8.4
2016-05-10T01:31:10.470Z,8.4
2016-05-10T01:34:13.573Z,8.4
2016-05-10T01:37:26.552Z,8.3
2016-05-10T01:40:39.529Z,8.3
2016-05-10T01:43:52.521Z,8.3
2016-05-10T01:47:10.342Z,8.2
2016-05-10T01:50:13.302Z,8.2
2016-05-10T01:53:26.174Z,8.2
2016-05-10T01:56:39.118Z,8.1
2016-05-10T01:59:49.158Z,8.1
2016-05-10T02:03:06.978Z,8
2016-05-10T02:06:14.956Z,8
2016-05-10T02:09:17.760Z,8
2016-05-10T02:12:30.568Z,7.9
2016-05-10T02:15:43.372Z,7.9
2016-05-10T02:18:54.022Z,7.9
2016-05-10T02:22:13.952Z,7.8
2016-05-10T02:25:16.804Z,7.8
2016-05-10T02:28:29.330Z,7.8
2016-05-10T02:31:42.181Z,7.8
2016-05-10T02:34:54.674Z,7.7
2016-05-10T02:38:12.431Z,7.7
2016-05-10T02:41:15.393Z,7.7
2016-05-10T02:44:28.247Z,7.7
2016-05-10T02:47:40.958Z,7.6
2016-05-10T02:50:53.685Z,7.6
2016-05-10T02:54:11.319Z,7.6
2016-05-10T02:57:14.311Z,7.5
2016-05-10T03:00:27.056Z,7.5
2016-05-10T03:03:39.846Z,7.5
2016-05-10T03:06:52.807Z,7.5
2016-05-10T03:10:10.331Z,7.5
2016-05-10T03:13:13.089Z,7.5
2016-05-10T03:16:25.974Z,7.4
2016-05-10T03:19:38.560Z,7.4
2016-05-10T03:22:51.349Z,7.4
2016-05-10T03:26:08.655Z,7.4
2016-05-10T03:29:11.397Z,7.4
2016-05-10T03:32:23.893Z,7.4
2016-05-10T03:35:36.666Z,7.4
2016-05-10T03:38:49.142Z,7.4
2016-05-10T03:42:06.667Z,7.4
2016-05-10T03:45:14.456Z,7.5
2016-05-10T03:48:17.136Z,7.5
2016-05-10T03:51:29.552Z,7.5
2016-05-10T03:54:42.061Z,7.6
2016-05-10T03:57:54.585Z,7.6
2016-05-10T04:01:12.108Z,7.6
2016-05-10T04:04:14.882Z,7.7
2016-05-10T04:07:27.393Z,7.7
2016-05-10T04:10:40.042Z,7.8
2016-05-10T04:13:52.862Z,7.8
2016-05-10T04:17:10.761Z,7.9
2016-05-10T04:20:13.534Z,8
2016-05-10T04:23:26.155Z,8.1
2016-05-10T04:26:38.819Z,8.1
2016-05-10T04:29:51.327Z,8.2
2016-05-10T04:33:08.757Z,8.2
2016-05-10T04:36:11.562Z,8.3
2016-05-10T04:39:24.304Z,8.4
2016-05-10T04:42:37.065Z,8.5
2016-05-10T04:45:49.917Z,8.6
2016-05-10T04:49:07.941Z,8.7
2016-05-10T04:52:10.995Z,8.8
2016-05-10T04:55:23.941Z,8.9
2016-05-10T04:58:33.296Z,9.1
2016-05-10T05:01:46.163Z,9.3
2016-05-10T05:04:59.265Z,9.6
2016-05-10T05:08:12.038Z,10
2016-05-10T05:11:25.094Z,10.5
2016-05-10T05:14:38.542Z,11.1
2016-05-10T05:17:52.128Z,11.9
2016-05-10T05:21:11.808Z,15.2
2016-05-10T05:24:16.706Z,18.5
2016-05-10T05:27:31.749Z,21.2
2016-05-10T05:30:47.288Z,23.6
2016-05-10T05:34:07.484Z,25.5
2016-05-10T05:37:13.320Z,27.1
2016-05-10T05:40:28.424Z,28.6
2016-05-10T05:43:47.698Z,29.9
2016-05-10T05:46:58.909Z,31
2016-05-10T05:50:14.199Z,31.8
2016-05-10T05:53:30.147Z,32.7
2016-05-10T05:56:46.139Z,33.5
2016-05-10T06:00:07.507Z,33.9
2016-05-10T06:03:14.015Z,34
2016-05-10T06:06:29.916Z,34.1
2016-05-10T06:09:45.767Z,34.3
2016-05-10T06:13:06.510Z,34.5
2016-05-10T06:16:12.675Z,34.8
2016-05-10T06:19:28.401Z,35.3
2016-05-10T06:22:43.569Z,35.6
2016-05-10T06:25:58.670Z,36.2
2016-05-10T06:29:14.038Z,36.6
2016-05-10T06:32:29.219Z,36.8
2016-05-10T06:35:44.510Z,37
2016-05-10T06:38:59.737Z,37.6
2016-05-10T06:42:13.213Z,38.1
2016-05-10T06:45:31.224Z,38.6
2016-05-10T06:48:47.232Z,39
2016-05-10T06:52:08.100Z,39.2
2016-05-10T06:55:14.623Z,39.4
2016-05-10T06:58:28.397Z,39.4
2016-05-10T07:01:44.157Z,39.2
2016-05-10T07:05:00.072Z,39.1
2016-05-10T07:08:15.643Z,38.8
2016-05-10T07:11:30.916Z,38.8
2016-05-10T07:14:46.505Z,39.2
2016-05-10T07:18:06.732Z,38.8
2016-05-10T07:21:12.350Z,38.4
2016-05-10T07:24:27.436Z,38.4
2016-05-10T07:27:39.884Z,38.3
2016-05-10T07:30:55.110Z,38.1
2016-05-10T07:34:15.260Z,37.9
2016-05-10T07:37:20.846Z,37.9
2016-05-10T07:40:35.699Z,37.5
2016-05-10T07:43:50.490Z,37
2016-05-10T07:47:10.310Z,35.9
2016-05-10T07:50:15.537Z,35.6
2016-05-10T07:53:30.279Z,35.2
2016-05-10T07:56:45.134Z,34.8
2016-05-10T08:00:00.345Z,34.4
2016-05-10T08:03:14.869Z,35
2016-05-10T08:06:27.986Z,35
2016-05-10T08:09:40.075Z,35
2016-05-10T08:12:53.208Z,35
2016-05-10T08:16:14.451Z,35.1
2016-05-10T08:19:19.381Z,34.9
2016-05-10T08:22:33.826Z,34.7
2016-05-10T08:25:48.477Z,34.6
2016-05-10T08:29:08.079Z,34.8
2016-05-10T08:32:13.353Z,35.3
2016-05-10T08:35:27.799Z,35.8
2016-05-10T08:38:42.512Z,36
2016-05-10T08:41:57.082Z,36
2016-05-10T08:45:11.716Z,35.9
2016-05-10T08:48:26.240Z,36.2
2016-05-10T08:51:40.735Z,36.5
2016-05-10T08:54:55.368Z,36.6
2016-05-10T08:58:14.876Z,36.7
2016-05-10T09:01:19.900Z,36.6
2016-05-10T09:04:34.422Z,36.5
2016-05-10T09:07:48.919Z,36.4
2016-05-10T09:11:08.567Z,36.5
2016-05-10T09:14:13.732Z,36.7
2016-05-10T09:17:28.302Z,36.6
2016-05-10T09:20:43.168Z,36.6
2016-05-10T09:23:58.104Z,37.1
2016-05-10T09:27:13.158Z,37.3
2016-05-10T09:30:27.974Z,37.4
2016-05-10T09:33:43.097Z,37.5
2016-05-10T09:36:57.985Z,37.6
2016-05-10T09:40:12.950Z,37.5
2016-05-10T09:43:27.851Z,37.4
2016-05-10T09:46:42.692Z,37.3
2016-05-10T09:49:57.481Z,37.4
2016-05-10T09:53:12.145Z,37.2
2016-05-10T09:56:27.091Z,36.8
2016-05-10T09:59:41.992Z,36.9
2016-05-10T10:02:56.969Z,37
2016-05-10T10:06:11.836Z,36.8
2016-05-10T10:09:26.830Z,37.1
2016-05-10T10:12:41.652Z,37.5
2016-05-10T10:15:56.660Z,37.5
2016-05-10T10:19:11.403Z,37.1
2016-05-10T10:22:25.973Z,37
2016-05-10T10:25:40.640Z,36.9
2016-05-10T10:28:55.039Z,36.9
2016-05-10T10:32:14.828Z,36.8
2016-05-10T10:35:19.836Z,36.9
2016-05-10T10:38:34.782Z,37.2
2016-05-10T10:41:49.558Z,37.4
2016-05-10T10:45:09.535Z,37.5
2016-05-10T10:48:14.699Z,37.5
2016-05-10T10:51:29.255Z,37.6
2016-05-10T10:54:44.062Z,37.5
2016-05-10T10:57:58.883Z,37.5
2016-05-10T11:01:13.687Z,37.3
2016-05-10T11:04:28.618Z,37.1
2016-05-10T11:07:43.503Z,36.6
2016-05-10T11:10:58.371Z,36.3
2016-05-10T11:14:13.191Z,36.3
2016-05-10T11:17:28.090Z,36.6
2016-05-10T11:20:42.942Z,36.3
2016-05-10T11:23:57.281Z,35.9
2016-05-10T11:27:11.367Z,35
2016-05-10T11:30:25.125Z,32.8
2016-05-10T11:33:38.523Z,30.4
2016-05-10T11:36:52.066Z,28.2
2016-05-10T11:40:10.917Z,26.3
2016-05-10T11:43:15.769Z,25
2016-05-10T11:46:30.247Z,24.2
2016-05-10T11:49:45.179Z,23.6
2016-05-10T11:53:00.171Z,23.1
2016-05-10T11:56:15.195Z,22.6
2016-05-10T11:59:30.281Z,22.2
2016-05-10T12:02:45.353Z,21.5
2016-05-10T12:05:59.816Z,21.1
2016-05-10T12:09:14.792Z,20.9
2016-05-10T12:12:29.753Z,20.7
2016-05-10T12:15:44.668Z,20.6
2016-05-10T12:18:59.835Z,20.5
2016-05-10T12:22:14.765Z,20.4
2016-05-10T12:25:30.024Z,20.3
2016-05-10T12:28:45.110Z,20.2
2016-05-10T12:32:00.322Z,20
2016-05-10T12:35:15.487Z,19.9
2016-05-10T12:38:30.245Z,19.8
2016-05-10T12:41:45.519Z,19.7
2016-05-10T12:45:00.874Z,19.7
2016-05-10T12:48:15.663Z,19.6
2016-05-10T12:51:30.655Z,19.7
2016-05-10T12:54:45.429Z,19.6
2016-05-10T12:58:00.159Z,19.5
2016-05-10T13:01:15.073Z,19.4
2016-05-10T13:04:30.206Z,19.4
2016-05-10T13:07:45.136Z,19.3
2016-05-10T13:11:00.084Z,19.2
2016-05-10T13:14:13.061Z,19.2
2016-05-10T13:17:28.022Z,19.1
2016-05-10T13:20:45.124Z,19.1
2016-05-10T13:24:00.056Z,19.1
2016-05-10T13:27:14.799Z,19.1
2016-05-10T13:30:29.557Z,19.1
2016-05-10T13:33:44.456Z,19
2016-05-10T13:36:59.264Z,19
2016-05-10T13:40:14.318Z,19
2016-05-10T13:43:38.530Z,18.9
2016-05-10T13:46:43.928Z,18.8
2016-05-10T13:49:58.533Z,18.8
2016-05-10T13:53:13.463Z,18.8
2016-05-10T13:56:28.549Z,18.8
2016-05-10T13:59:43.510Z,18.8
2016-05-10T14:02:58.177Z,18.8
2016-05-10T14:06:12.967Z,18.8
2016-05-10T14:09:27.772Z,18.7
2016-05-10T14:12:42.686Z,18.7
2016-05-10T14:15:57.666Z,18.8
2016-05-10T14:19:12.595Z,18.7
2016-05-10T14:22:27.353Z,18.7
2016-05-10T14:25:42.283Z,18.7
2016-05-10T14:28:57.105Z,18.7
2016-05-10T14:32:12.005Z,18.7
2016-05-10T14:35:27.045Z,18.7
2016-05-10T14:38:41.662Z,18.6
2016-05-10T14:41:56.389Z,18.6
2016-05-10T14:45:16.290Z,18.6
2016-05-10T14:48:21.470Z,18.6
2016-05-10T14:51:36.181Z,18.6
2016-05-10T14:54:50.783Z,18.5
2016-05-10T14:58:10.591Z,18.6
2016-05-10T15:01:15.740Z,18.5
2016-05-10T15:04:30.404Z,18.5
2016-05-10T15:07:45.413Z,18.5
2016-05-10T15:11:00.264Z,18.5
2016-05-10T15:14:15.181Z,18.5
2016-05-10T15:17:29.814Z,18.5
2016-05-10T15:20:44.370Z,18.5
2016-05-10T15:23:59.236Z,18.4
2016-05-10T15:27:14.091Z,18.4
2016-05-10T15:30:28.661Z,18.4
2016-05-10T15:33:42.966Z,18.4
2016-05-10T15:36:57.787Z,18.4
2016-05-10T15:40:12.642Z,18.3
2016-05-10T15:43:27.306Z,18.3
2016-05-10T15:46:42.111Z,18.3
2016-05-10T15:49:56.884Z,18.3
2016-05-10T15:53:11.411Z,18.3
2016-05-10T15:56:26.185Z,18.3
2016-05-10T15:59:40.911Z,18.4
2016-05-10T16:02:55.889Z,18.5
2016-05-10T16:06:15.602Z,18.7
2016-05-10T16:09:20.735Z,18.8
2016-05-10T16:12:35.603Z,18.9
2016-05-10T16:15:50.268Z,18.8
2016-05-10T16:19:10.012Z,18.6
2016-05-10T16:22:15.083Z,18.4
2016-05-10T16:25:29.716Z,18.2
2016-05-10T16:28:44.224Z,18
2016-05-10T16:31:58.889Z,17.8
2016-05-10T16:35:13.305Z,17.7
2016-05-10T16:38:27.891Z,17.6
2016-05-10T16:41:40.399Z,17.5
2016-05-10T16:44:57.236Z,17.5
2016-05-10T16:48:11.668Z,17.4
2016-05-10T16:51:26.334Z,17.4
2016-05-10T16:54:40.935Z,17.4
2016-05-10T16:57:55.239Z,17.4
2016-05-10T17:01:14.813Z,17.3
2016-05-10T17:04:19.696Z,17.2
2016-05-10T17:07:34.219Z,17.2
2016-05-10T17:10:48.446Z,17.1
2016-05-10T17:14:07.892Z,17.1
2016-05-10T17:17:12.668Z,17
2016-05-10T17:20:27.068Z,16.9
2016-05-10T17:23:41.309Z,16.9
2016-05-10T17:26:52.678Z,16.8
2016-05-10T17:30:11.688Z,16.7
2016-05-10T17:33:16.149Z,16.6
2016-05-10T17:36:30.110Z,16.5
2016-05-10T17:39:42.962Z,16.5
2016-05-10T17:42:55.501Z,16.4
2016-05-10T17:46:13.402Z,16.3
2016-05-10T17:49:16.973Z,16.3
2016-05-10T17:52:30.326Z,16.3
2016-05-10T17:55:43.645Z,16.3
2016-05-10T17:58:56.856Z,16.2
2016-05-10T18:02:15.258Z,16
2016-05-10T18:05:18.860Z,15.9
2016-05-10T18:08:30.056Z,15.8
2016-05-10T18:11:45.532Z,15.7
2016-05-10T18:14:58.603Z,15.5
2016-05-10T18:18:11.892Z,15.4
2016-05-10T18:21:25.293Z,15.3
2016-05-10T18:24:38.691Z,15.2
2016-05-10T18:27:52.095Z,15
2016-05-10T18:31:10.337Z,14.9
2016-05-10T18:34:13.907Z,14.8
2016-05-10T18:37:27.496Z,14.7
2016-05-10T18:40:40.844Z,14.6
2016-05-10T18:43:54.201Z,14.4
2016-05-10T18:47:12.587Z,14.3
2016-05-10T18:50:16.381Z,14.2
2016-05-10T18:53:29.827Z,14.1
2016-05-10T18:56:43.226Z,14
2016-05-10T18:59:56.765Z,13.9
2016-05-10T19:03:15.244Z,13.8
2016-05-10T19:06:19.096Z,13.7
2016-05-10T19:09:32.652Z,13.6
2016-05-10T19:12:45.893Z,13.5
2016-05-10T19:15:59.370Z,13.5
2016-05-10T19:19:12.691Z,13.4
2016-05-10T19:22:26.233Z,13.3
2016-05-10T19:25:39.756Z,13.2
2016-05-10T19:28:53.155Z,13.1
2016-05-10T19:32:11.539Z,13.1
2016-05-10T19:35:15.062Z,13
2016-05-10T19:38:28.355Z,12.9
2016-05-10T19:41:41.534Z,12.9
2016-05-10T19:44:54.777Z,12.8
2016-05-10T19:48:10.832Z,12.8
2016-05-10T19:51:14.403Z,12.7
2016-05-10T19:54:27.725Z,12.6
2016-05-10T19:57:41.000Z,12.6
2016-05-10T20:00:54.398Z,12.5
2016-05-10T20:04:12.796Z,12.4
2016-05-10T20:07:16.305Z,12.4
2016-05-10T20:10:29.471Z,12.3
2016-05-10T20:13:42.260Z,12.3
2016-05-10T20:16:55.300Z,12.3
2016-05-10T20:20:13.590Z,12.2
2016-05-10T20:21:15.170Z,12.2
2016-05-10T20:24:26.650Z,12.3
2016-05-10T20:27:39.283Z,12.3
2016-05-10T20:30:52.260Z,12.4
2016-05-10T20:34:10.377Z,12.3
2016-05-10T20:37:13.526Z,12.3
2016-05-10T20:40:25.849Z,12.2
2016-05-10T20:43:39.013Z,12.9
2016-05-10T20:46:52.131Z,13.6
2016-05-10T20:50:10.154Z,14
2016-05-10T20:53:13.678Z,14.3
2016-05-10T20:56:27.017Z,14.5
2016-05-10T20:59:38.119Z,14.6
2016-05-10T21:02:53.392Z,14.6
2016-05-10T21:06:11.885Z,14.6
2016-05-10T21:09:15.362Z,14.7
2016-05-10T21:12:28.623Z,14.6
2016-05-10T21:15:41.584Z,14.6
2016-05-10T21:18:54.670Z,14.6
2016-05-10T21:22:12.662Z,14.6
2016-05-10T21:25:15.936Z,14.6
2016-05-10T21:28:29.244Z,14.5
2016-05-10T21:31:41.095Z,14.5
2016-05-10T21:34:54.291Z,14.5
2016-05-10T21:38:12.283Z,14.5
2016-05-10T21:41:15.838Z,14.4
2016-05-10T21:44:29.193Z,14.4
2016-05-10T21:47:42.263Z,14.4
2016-05-10T21:50:55.318Z,14.3
2016-05-10T21:54:13.654Z,14.3
2016-05-10T21:57:17.225Z,14.2
2016-05-10T22:00:28.345Z,14.2
2016-05-10T22:03:41.276Z,14.2
2016-05-10T22:06:54.519Z,14.1
2016-05-10T22:10:12.697Z,14.1
2016-05-10T22:13:16.159Z,14
2016-05-10T22:16:29.263Z,13.9
2016-05-10T22:19:42.428Z,13.9
2016-05-10T22:22:55.936Z,13.9
2016-05-10T22:26:12.225Z,13.8
2016-05-10T22:29:15.467Z,13.8
2016-05-10T22:32:28.525Z,13.7
2016-05-10T22:35:41.408Z,13.7
2016-05-10T22:38:54.494Z,13.7
2016-05-10T22:42:12.393Z,13.6
2016-05-10T22:45:15.651Z,13.6
2016-05-10T22:48:25.834Z,13.6
2016-05-10T22:51:38.717Z,13.5
2016-05-10T22:54:51.553Z,13.5
2016-05-10T22:58:09.373Z,13.4
2016-05-10T23:01:12.522Z,13.4
2016-05-10T23:04:25.627Z,13.3
2016-05-10T23:07:35.478Z,13.3
2016-05-10T23:10:50.299Z,13.2
2016-05-10T23:14:07.870Z,13.2
2016-05-10T23:17:16.160Z,13.2
2016-05-10T23:20:19.449Z,13.2
2016-05-10T23:23:30.678Z,13.1
2016-05-10T23:26:45.404Z,13.1
2016-05-10T23:29:58.866Z,13
2016-05-10T23:33:16.280Z,12.9
2016-05-10T23:36:19.366Z,12.9
2016-05-10T23:39:30.097Z,12.9
2016-05-10T23:42:44.791Z,12.8
2016-05-10T23:45:57.393Z,12.8
2016-05-10T23:49:15.073Z,12.7
2016-05-10T23:52:18.253Z,12.7
2016-05-10T23:55:31.390Z,12.7
2016-05-10T23:58:44.538Z,12.6
